Latest Weather Observations for Munglinup West

IDW60801

Issued at 9:33 pm WST Saturday 29 April 2017 (issued every 30 minutes, with the page automatically refreshed every 10 minutes)

About weather observations | Map of weather stations | Latest weather observations for WA | Other Formats
Station Details ID: 012044 Name: MUNGLINUP WEST Lat: -33.55 Lon: 120.70 Height: 220.0 m
Data from the previous 72 hours. | See also: Recent months at Munglinup West
Date/Time
WST
Temp
°C
App
Temp
°C
Dew
Point
°C
Rel
Hum
%
Delta-T
°C
Wind Press
QNH
hPa
Press
MSL
hPa
Rain since
9am
mm
Dir  Spd
km/h
Gust
km/h
Spd
kts
Gust
kts
29/09:30pm 13.1 10.3 11.2 88 1.0 NE 17 22 9 12 1022.3 1021.8 0.0
29/09:00pm 13.3 10.5 11.2 87 1.1 NE 17 22 9 12 1022.4 1021.9 0.0
29/08:30pm 13.3 10.5 11.4 88 1.0 ENE 17 20 9 11 1022.4 1021.9 0.0
29/08:00pm 13.1 10.5 10.8 86 1.2 ENE 15 17 8 9 1022.5 1022.0 0.0
29/07:30pm 13.6 11.1 11.1 85 1.3 E 15 17 8 9 1022.5 1022.0 0.0
29/07:00pm 13.9 11.0 10.9 82 1.6 E 17 19 9 10 1022.4 1021.9 0.0
29/06:30pm 15.2 12.3 11.0 76 2.3 E 17 20 9 11 1022.3 1021.8 0.0
29/06:00pm 15.4 12.7 10.4 72 2.7 ESE 15 19 8 10 1022.3 1021.8 0.0
29/05:30pm 16.6 13.9 10.5 67 3.3 SE 15 19 8 10 1022.2 1021.7 0.0
29/05:00pm 18.2 15.5 10.3 60 4.2 SE 15 22 8 12 1022.1 1021.6 0.0
29/04:30pm 19.9 16.2 10.0 53 5.4 SE 20 24 11 13 1022.0 1021.5 0.0
29/04:00pm 21.5 17.8 10.3 49 6.1 SE 20 26 11 14 1021.9 1021.4 0.0
29/03:30pm 24.6 22.7 4.9 28 10.0 NNW 4 7 2 4 1021.8 1021.3 0.0
29/03:00pm 25.1 23.4 5.8 29 10.0 ESE 4 7 2 4 1021.9 1021.4 0.0
29/02:30pm 24.4 23.0 5.7 30 9.6 SSE 2 7 1 4 1022.1 1021.6 0.0
29/02:00pm 24.2 22.0 5.1 29 9.7 NW 6 11 3 6 1022.1 1021.6 0.0
29/01:30pm 24.6 22.7 4.9 28 10.0 SSW 4 9 2 5 1022.5 1022.0 0.0
29/01:00pm 24.0 21.9 6.7 33 9.0 NW 7 13 4 7 1022.8 1022.3 0.0
29/12:30pm 23.0 20.9 5.9 33 8.8 SW 6 11 3 6 1023.2 1022.7 0.0
29/12:00pm 22.4 20.4 6.2 35 8.3 NW 6 13 3 7 1023.8 1023.3 0.0
29/11:30am 22.2 20.5 7.6 39 7.7 WNW 6 13 3 7 1024.3 1023.8 0.0
29/11:00am 22.0 20.4 8.2 41 7.3 NW 6 11 3 6 1025.0 1024.4 0.0
29/10:30am 21.6 20.2 8.8 44 6.9 N 6 9 3 5 1025.3 1024.7 0.0
29/10:00am 20.4 18.5 9.0 48 6.1 N 9 17 5 9 1025.7 1025.2 0.0
29/09:30am 19.0 17.3 10.0 56 4.9 N 9 13 5 7 1025.9 1025.4 0.0
29/09:00am 17.3 14.9 10.2 63 3.8 N 13 19 7 10 1026.0 1025.5 0.0
29/08:30am 16.2 14.0 10.9 71 2.9 NNE 13 17 7 9 1026.1 1025.6 0.0
29/08:00am 14.2 12.3 10.4 78 2.0 NNE 11 17 6 9 1025.9 1025.4 0.0
29/07:30am 12.1 10.4 10.0 87 1.1 NNE 9 13 5 7 1026.0 1025.5 0.0
29/07:00am 10.0 7.7 9.1 94 0.4 NNE 11 13 6 7 1025.8 1025.3 0.0
29/06:30am 8.6 7.0 7.8 95 0.4 NNE 6 9 3 5 1026.0 1025.5 0.0
29/06:00am 8.1 6.1 7.3 95 0.4 N 7 9 4 5 1026.0 1025.5 0.0
29/05:30am 8.0 6.0 7.2 95 0.4 N 7 9 4 5 1026.0 1025.5 0.0
29/05:00am 8.2 6.4 7.1 93 0.5 N 6 7 3 4 1025.9 1025.4 0.0
29/04:30am 9.4 6.9 8.3 93 0.5 NNE 11 15 6 8 1026.0 1025.5 0.0
29/04:00am 9.8 6.6 8.4 91 0.7 NNE 15 19 8 10 1025.7 1025.2 0.0
29/03:30am 10.1 7.0 8.7 91 0.7 NNE 15 20 8 11 1025.5 1025.0 0.0
29/03:00am 10.1 6.9 8.5 90 0.8 NE 15 20 8 11 1025.5 1025.0 0.0
29/02:30am 10.6 7.2 9.0 90 0.8 NE 17 22 9 12 1025.7 1025.2 0.0
29/02:00am 10.4 8.0 8.8 90 0.8 NE 11 15 6 8 1025.7 1025.2 0.0
29/01:30am 11.0 8.4 9.3 89 0.9 NE 13 17 7 9 1025.8 1025.3 0.0
29/01:00am 11.6 9.0 9.5 87 1.1 NE 13 17 7 9 1026.1 1025.6 0.0
29/12:30am 12.3 9.1 10.0 86 1.2 NE 17 20 9 11 1026.1 1025.6 0.0
29/12:00am 12.5 9.5 10.6 88 1.0 NE 17 20 9 11 1026.1 1025.6 0.0
 
Date/Time
WST
Temp
°C
App
Temp
°C
Dew
Point
°C
Rel
Hum
%
Delta-T
°C
Wind Press
QNH
hPa
Press
MSL
hPa
Rain since
9am
mm
Dir  Spd
km/h
Gust
km/h
Spd
kts
Gust
kts
28/11:30pm 12.9 10.4 11.0 88 1.0 NE 15 20 8 11 1026.1 1025.6 0.0
28/11:00pm 13.0 10.9 11.2 89 1.0 ENE 13 17 7 9 1026.3 1025.8 0.0
28/10:30pm 13.4 11.0 11.5 88 1.0 ENE 15 19 8 10 1026.5 1026.0 0.0
28/10:00pm 13.9 11.2 11.8 87 1.1 ENE 17 22 9 12 1026.7 1026.2 0.0
28/09:30pm 14.3 11.8 12.2 87 1.2 E 17 22 9 12 1026.7 1026.2 0.0
28/09:00pm 15.0 12.4 12.1 83 1.6 E 17 22 9 12 1026.8 1026.3 0.0
28/08:30pm 14.9 13.2 13.6 92 0.7 ESE 15 20 8 11 1026.9 1026.4 0.0
28/08:00pm 14.8 13.0 13.3 91 0.8 ESE 15 19 8 10 1026.9 1026.4 0.0
28/07:30pm 14.5 12.9 12.9 90 0.9 SE 13 15 7 8 1027.0 1026.5 0.0
28/07:00pm 14.3 12.8 11.8 85 1.4 SE 11 13 6 7 1026.8 1026.3 0.0
28/06:30pm 14.9 12.8 11.3 79 1.9 SE 13 15 7 8 1026.5 1026.0 0.0
28/06:00pm 15.3 13.5 10.7 74 2.4 SE 11 15 6 8 1026.2 1025.7 0.0
28/05:30pm 16.3 14.3 10.2 67 3.3 SSE 11 15 6 8 1026.0 1025.5 0.0
28/05:00pm 17.3 14.8 9.7 61 4.0 SSE 13 19 7 10 1025.8 1025.3 0.0
28/04:30pm 19.2 16.0 9.9 55 5.0 SE 17 20 9 11 1025.7 1025.2 0.0
28/04:00pm 19.7 15.8 9.6 52 5.4 SE 20 24 11 13 1025.8 1025.3 0.0
28/03:30pm 21.0 17.1 9.6 48 6.2 SE 20 26 11 14 1025.4 1024.9 0.0
28/03:00pm 23.9 22.8 8.3 37 8.3 NW 4 6 2 3 1025.3 1024.7 0.0
28/02:30pm 22.8 22.1 8.5 40 7.7 N 2 6 1 3 1025.3 1024.7 0.0
28/02:00pm 22.1 21.1 8.9 43 7.1 NNE 4 6 2 3 1025.3 1024.7 0.0
28/01:30pm 22.9 21.7 8.2 39 7.8 ESE 4 9 2 5 1025.6 1025.1 0.0
28/01:00pm 23.2 21.4 7.3 36 8.3 SE 6 15 3 8 1025.9 1025.4 0.0
28/12:30pm 23.3 21.8 9.0 40 7.8 NE 7 17 4 9 1026.3 1025.8 0.0
28/12:00pm 22.8 21.1 8.5 40 7.6 NE 7 15 4 8 1026.8 1026.3 0.0
28/11:30am 22.9 21.3 8.6 40 7.7 NNE 7 15 4 8 1027.2 1026.7 0.0
28/11:00am 22.2 20.8 9.4 44 6.9 W 7 13 4 7 1027.5 1027.0 0.0
28/10:30am 21.6 21.0 8.8 44 6.9 ESE 2 6 1 3 1027.9 1027.4 0.0
28/10:00am 21.3 20.4 9.2 46 6.5 NNW 4 9 2 5 1028.1 1027.6 0.0
28/09:30am 20.9 19.5 9.5 48 6.2 NNW 7 13 4 7 1028.3 1027.8 0.0
28/09:00am 19.8 17.7 9.7 52 5.4 N 11 17 6 9 1028.4 1027.9 0.0
28/08:30am 17.2 15.6 10.1 63 3.8 N 9 13 5 7 1028.5 1028.0 0.0
28/08:00am 16.1 14.4 9.8 66 3.3 N 9 13 5 7 1028.3 1027.8 0.0
28/07:30am 13.2 11.8 9.5 78 1.9 N 7 13 4 7 1028.1 1027.6 0.0
28/07:00am 10.5 8.4 8.4 87 1.0 NNE 9 13 5 7 1027.8 1027.3 0.0
28/06:30am 10.1 7.9 8.0 87 1.0 NNE 9 13 5 7 1027.6 1027.1 0.0
28/06:00am 10.0 8.2 7.9 87 1.0 NNE 7 11 4 6 1027.3 1026.8 0.0
28/05:30am 10.3 8.5 7.9 85 1.2 NNE 7 9 4 5 1027.0 1026.5 0.0
28/05:00am 10.9 9.3 8.1 83 1.4 N 6 7 3 4 1026.9 1026.4 0.0
28/04:30am 11.0 8.9 8.2 83 1.4 N 9 13 5 7 1026.7 1026.2 0.0
28/04:00am 11.8 9.1 8.8 82 1.5 NNE 13 15 7 8 1026.5 1026.0 0.0
28/03:30am 12.0 9.7 9.0 82 1.5 NNE 11 13 6 7 1026.4 1025.9 0.0
28/03:00am 12.2 9.9 9.0 81 1.6 NE 11 13 6 7 1026.4 1025.9 0.0
28/02:30am 12.4 10.2 9.2 81 1.6 NE 11 15 6 8 1026.3 1025.8 0.0
28/02:00am 12.5 9.9 9.3 81 1.6 NE 13 15 7 8 1026.2 1025.7 0.0
28/01:30am 12.7 10.1 9.2 79 1.8 NE 13 15 7 8 1026.3 1025.8 0.0
28/01:00am 13.5 10.9 9.4 76 2.1 NE 13 15 7 8 1026.4 1025.9 0.0
28/12:30am 14.0 11.1 9.6 75 2.3 NE 15 19 8 10 1026.5 1026.0 0.0
28/12:00am 13.9 11.3 9.5 75 2.3 NE 13 17 7 9 1026.7 1026.2 0.0
 
Date/Time
WST
Temp
°C
App
Temp
°C
Dew
Point
°C
Rel
Hum
%
Delta-T
°C
Wind Press
QNH
hPa
Press
MSL
hPa
Rain since
9am
mm
Dir  Spd
km/h
Gust
km/h
Spd
kts
Gust
kts
27/11:30pm 13.6 10.9 8.9 73 2.4 NE 13 17 7 9 1026.6 1026.1 0.0
27/11:00pm 13.0 10.7 9.1 77 2.0 NE 11 15 6 8 1026.6 1026.1 0.0
27/10:30pm 13.3 11.1 9.2 76 2.1 NE 11 13 6 7 1026.7 1026.2 0.0
27/10:00pm 13.2 11.0 9.3 77 2.0 NE 11 13 6 7 1026.9 1026.4 0.0
27/09:30pm 13.7 11.5 9.4 75 2.2 NE 11 13 6 7 1026.9 1026.4 0.0
27/09:00pm 14.0 11.4 9.4 74 2.4 NE 13 17 7 9 1027.1 1026.6 0.0
27/08:30pm 14.4 12.2 9.4 72 2.6 NNE 11 13 6 7 1027.2 1026.7 0.0
27/08:00pm 14.8 12.7 9.6 71 2.7 NNE 11 13 6 7 1026.8 1026.3 0.0
27/07:30pm 15.4 13.3 9.7 69 3.0 NE 11 13 6 7 1026.8 1026.3 0.0
27/07:00pm 15.6 13.9 9.9 69 3.0 NE 9 13 5 7 1026.6 1026.1 0.0
27/06:30pm 16.0 15.1 10.7 71 2.8 E 6 7 3 4 1026.4 1025.9 0.0
27/06:00pm 17.0 16.2 11.7 71 2.9 ESE 7 13 4 7 1026.2 1025.7 0.0
27/05:30pm 17.5 16.3 10.4 63 3.8 N 7 7 4 4 1025.9 1025.4 0.0
27/05:00pm 18.8 18.0 10.9 60 4.3 N 6 7 3 4 1025.9 1025.4 0.0
27/04:30pm 20.5 20.2 12.7 61 4.5 N 6 7 3 4 1025.8 1025.3 0.0
27/04:00pm 21.2 21.4 14.8 67 3.8 NNE 7 11 4 6 1025.7 1025.2 0.0
27/03:30pm 21.6 21.9 15.0 66 3.9 NNE 7 9 4 5 1025.7 1025.2 0.0
27/03:00pm 21.6 22.3 14.5 64 4.2 NE 4 7 2 4 1025.8 1025.3 0.0
27/02:30pm 21.9 22.4 14.0 61 4.6 ENE 4 7 2 4 1025.7 1025.2 0.0
27/02:00pm 23.7 24.0 14.9 57 5.3 NNE 7 13 4 7 1025.8 1025.3 0.0
27/01:30pm 23.3 22.8 14.8 59 5.1 NE 11 17 6 9 1026.0 1025.5 0.0
27/01:00pm 23.1 23.4 14.4 58 5.1 NNW 6 9 3 5 1026.2 1025.7 0.0
27/12:30pm 23.2 23.4 14.7 58 5.1 NNE 7 13 4 7 1026.7 1026.2 0.0
27/12:00pm 23.3 22.9 14.0 56 5.5 NE 9 13 5 7 1027.1 1026.6 0.0
27/11:30am 22.5 21.8 13.3 56 5.4 NNW 9 13 5 7 1027.8 1027.3 0.0
27/11:00am 21.7 19.0 5.6 35 8.1 N 9 17 5 9 1028.2 1027.7 0.0
27/10:30am 21.2 19.6 10.1 49 6.1 NNW 9 17 5 9 1028.6 1028.1 0.0
27/10:00am 19.8 19.0 15.2 75 2.7 N 13 17 7 9 1028.9 1028.4 0.0
27/09:30am 17.3 15.9 12.2 72 2.8 N 11 17 6 9 1029.1 1028.6 0.0
27/09:00am 15.7 14.1 11.5 76 2.3 N 11 17 6 9 1029.6 1029.1 0.0
27/08:30am 14.8 12.4 12.7 87 1.2 N 17 22 9 12 1029.5 1029.0 0.0
27/08:00am 13.4 11.4 12.8 96 0.3 NNE 15 24 8 13 1029.3 1028.8 0.0
27/07:30am 11.7 9.8 11.7 100 0.0 NNE 13 19 7 10 1028.9 1028.4 0.0
27/07:00am 10.6 8.0 10.6 100 0.0 NNE 15 22 8 12 1028.7 1028.2 0.0
27/06:30am 10.4 7.7 10.4 100 0.0 NNE 15 19 8 10 1028.6 1028.1 0.0
27/06:00am 10.6 8.0 10.6 100 0.0 NE 15 19 8 10 1028.6 1028.1 0.0
27/05:30am 11.0 8.5 11.0 100 0.0 NE 15 19 8 10 1028.5 1028.0 0.0
27/05:00am 11.2 8.7 11.2 100 0.0 NE 15 19 8 10 1028.3 1027.8 0.0
27/04:30am 11.2 8.7 11.2 100 0.0 NE 15 19 8 10 1028.2 1027.7 0.0
27/04:00am 11.2 9.1 11.2 100 0.0 NE 13 17 7 9 1028.2 1027.7 0.0
27/03:30am 11.1 9.0 11.1 100 0.0 NE 13 17 7 9 1028.2 1027.7 0.0
27/03:00am 10.9 9.5 10.9 100 0.0 NE 9 11 5 6 1028.3 1027.8 0.0
27/02:30am 11.3 10.3 11.1 99 0.1 NE 7 9 4 5 1028.5 1028.0 0.0
27/02:00am 11.8 10.6 11.6 99 0.1 NE 9 13 5 7 1028.5 1028.0 0.0
27/01:30am 12.2 11.1 12.0 99 0.1 NE 9 13 5 7 1028.6 1028.1 0.0
27/01:00am 12.3 11.2 12.1 99 0.1 NE 9 13 5 7 1028.6 1028.1 0.0
27/12:30am 12.6 11.3 12.4 99 0.1 NE 11 15 6 8 1028.4 1027.9 0.0
27/12:00am 12.9 11.2 12.6 98 0.2 ENE 13 17 7 9 1028.4 1027.9 0.0
 
Date/Time
WST
Temp
°C
App
Temp
°C
Dew
Point
°C
Rel
Hum
%
Delta-T
°C
Wind Press
QNH
hPa
Press
MSL
hPa
Rain since
9am
mm
Dir  Spd
km/h
Gust
km/h
Spd
kts
Gust
kts
26/11:30pm 13.2 12.0 12.9 98 0.2 ENE 11 15 6 8 1028.4 1027.9 0.0
26/11:00pm 13.4 12.7 13.1 98 0.2 ENE 9 13 5 7 1028.4 1027.9 0.0
26/10:30pm 13.7 12.7 13.4 98 0.2 ENE 11 15 6 8 1028.5 1028.0 0.0
26/10:00pm 13.8 12.8 13.5 98 0.2 ENE 11 13 6 7 1028.6 1028.1 0.0

Other Formats:

Comma delimited format used in spreadsheet applications
http://www.bom.gov.au/fwo/IDW60801/IDW60801.95644.axf

JavaScript Object Notation format (JSON) in row-major order
http://www.bom.gov.au/fwo/IDW60801/IDW60801.95644.json